Ana Sayfa
METAR-TAF:

METAR-TAF

Havaalanları :

Dakar, Senegal

Enlem: 14-44N, Boylam: 017-30W, yükseklik: 27 m

Güncel hava durumu gözlemi

Rapor saat 09:00 UTC de 30 dakika önce yapıldı.
Rüzgar doğudan 14 kt
Sıcaklık 25°C
Nem 79%
Basınç 1017 hPa
Görüş mesafesi: 8000 m
1300 ft yükseklikte parçalı çok bulutlu
yağmur

METAR: GOOY 240900Z 10014KT 8000 RA BKN013 25/21 Q1017

Saat: 09:30 (09:30 UTC)

Tahmin

Rapor saat 05:30 UTC de 4 saat ve 0 dakika önce yapıldı.
Ayın 24'si saat 06 UTC'den ayın 25'si saat 12 UTC'ye kadar geçerli Tahmin
Rüzgar batı/kuzeybatıdan 10 kt
Görüş mesafesi 10 km veya daha fazla
1300 ft yükseklikte parçalı bulutlu
Geçici
ayın 24'si saat 07 UTC'den ayın 24'si saat 13 UTC'ye kadar
Görüş mesafesi: 4000 m
1000 ft yükseklikte parçalı çok bulutlu
2000 ft yükseklikte az bulutlu, Kümülonimbus.
gök gürültülü fırtına, yağmur

TAF: GOOY 240530Z 2406/2512 29010KT 9999 SCT013 TEMPO 2407/2413 4000 TSRA BKN010 FEW020CB

4.000'den fazla havaalanı için hava durumu gözlemleri ve tahminleri (METAR ve TAF raporları).

Kullanılabilir istasyonlar harita üzerinde sarı ve kırmızı noktalarla gösterilir.

İstasyonun adını görmek için fareyi noktanın üzerinde gezdirin.

Sonrasında hava gözlem ve tahminlerini görmek için tıklayın.

Haritayı değiştirmek için: yaklaştırmak için siyah artı işaretli yeşil düğmeye ve uzaklaştırmak için de eksi işaretli düğmeye hızla tıklayın; bitişik haritalar için yeşil okları kullanın.


METAR-TAF: